KELZ/ELZ METAR and TAF weather

Enter ICAO airport designator
Station Type Date Time Source
KELZ METAR 2018/06/25 02:06 UTC NOAA

KELZ 250206Z AUTO 02004KT 10SM SCT004 BKN013 16/15 A3003 RMK AO2 T01560150


Station Type Date Time Source
KELZ Decoded METAR 2018/06/25 02:06 UTC NOAA

WELLSVILLE MUNICIPAL AIRPORT, NY, United States (KELZ) 42-06N 077-60W 646M
Jun 24, 2018 - 10:06 PM EDT / 2018.06.25 0206 UTC
Wind: from the NNE (020 degrees) at 5 MPH (4 KT):0
Visibility: 10 mile(s):0
Sky conditions: mostly cloudy
Temperature: 60.1 F (15.6 C)
Dew Point: 59.0 F (15.0 C)
Relative Humidity: 96%
Pressure (altimeter): 30.03 in. Hg (1016 hPa)
ob: KELZ 250206Z AUTO 02004KT 10SM SCT004 BKN013 16/15 A3003 RMK AO2 T01560150
cycle: 2

Station Type Date Time Source
KELZ TAF UTC NOAA

Error!


Example: see airport list